Time;durP1;ratioP1;P1;durP2;ratioP2;P2;SDS_P1;SDS_P2;PMS_P1;PMS_P2;Temp;Humidity;BMP_temperature;BMP_pressure;BME280_temperature;BME280_humidity;BME280_pressure;Samples;Min_cycle;Max_cycle;Signal;HPM_P1;HPM_P2
2024/01/21 00:01:48;;;;;;;;;;;-2.80;99.90;;;;;;5059677;28;19983;-71
2024/01/21 00:04:15;;;;;;;;;;;-2.90;99.90;;;;;;5058873;28;20142;-72
2024/01/21 00:06:42;;;;;;;;;;;-2.90;99.90;;;;;;5059797;28;20491;-72
2024/01/21 00:09:09;;;;;;;;;;;-2.90;99.90;;;;;;5058997;28;20005;-71
2024/01/21 00:11:35;;;;;;;;;;;-2.90;99.90;;;;;;5060103;28;19971;-72
2024/01/21 00:14:02;;;;;;;;;;;-2.90;99.90;;;;;;5061948;28;20200;-71
2024/01/21 00:16:28;;;;;;;;;;;-2.90;99.90;;;;;;5062462;28;20364;-71
2024/01/21 00:18:55;;;;;;;;;;;-2.90;99.90;;;;;;5062962;28;19972;-73
2024/01/21 00:21:21;;;;;;;;;;;-3.00;99.90;;;;;;5060793;28;20032;-72
2024/01/21 00:23:49;;;;;;;;;;;-3.00;99.90;;;;;;5064637;28;19987;-72
2024/01/21 00:26:16;;;;;;;;;;;-3.00;99.90;;;;;;5056659;28;20065;-74
2024/01/21 00:28:42;;;;;;;;;;;-3.00;99.90;;;;;;5061254;28;19972;-72
2024/01/21 00:31:09;;;;;;;;;;;-3.00;99.90;;;;;;5061431;28;19987;-72
2024/01/21 00:33:35;;;;;;;;;;;-3.00;99.90;;;;;;5062971;28;19971;-72
2024/01/21 00:36:02;;;;;;;;;;;-3.00;99.90;;;;;;5063278;28;19998;-73
2024/01/21 00:38:28;;;;;;;;;;;-3.00;99.90;;;;;;5060929;28;19971;-72
2024/01/21 00:40:56;;;;;;;;;;;-3.00;99.90;;;;;;5057598;28;19975;-72
2024/01/21 00:43:23;;;;;;;;;;;-3.00;99.90;;;;;;5060830;28;19984;-72
2024/01/21 00:45:51;;;;;;;;;;;-3.10;99.90;;;;;;5056351;28;19999;-72
2024/01/21 00:48:18;;;;;;;;;;;-3.10;99.90;;;;;;5057850;28;19971;-72
2024/01/21 00:50:44;;;;;;;;;;;-3.10;99.90;;;;;;5059033;28;19994;-71
2024/01/21 00:53:11;;;;;;;;;;;-3.10;99.90;;;;;;5063875;28;19979;-74
2024/01/21 00:55:37;;;;;;;;;;;-3.10;99.90;;;;;;5068579;28;20017;-71
2024/01/21 00:58:05;;;;;;;;;;;-3.10;99.90;;;;;;5064773;28;20429;-71
2024/01/21 01:00:32;;;;;;;;;;;-3.10;99.90;;;;;;5067584;28;20204;-72
2024/01/21 01:02:59;;;;;;;;;;;-3.10;99.90;;;;;;5068189;28;19998;-70
2024/01/21 01:05:26;;;;;;;;;;;-3.20;99.90;;;;;;5059595;28;20095;-72
2024/01/21 01:07:52;;;;;;;;;;;-3.20;99.90;;;;;;5064113;28;19975;-72
2024/01/21 01:10:19;;;;;;;;;;;-3.20;99.90;;;;;;5064354;28;20476;-72
2024/01/21 01:12:45;;;;;;;;;;;-3.20;99.90;;;;;;5064775;28;20609;-72
2024/01/21 01:15:13;;;;;;;;;;;-3.20;99.90;;;;;;5063073;28;20065;-74
2024/01/21 01:17:40;;;;;;;;;;;-3.20;99.90;;;;;;5060457;28;19972;-73
2024/01/21 01:20:07;;;;;;;;;;;-3.20;99.90;;;;;;5062681;28;19976;-72
2024/01/21 01:22:35;;;;;;;;;;;-3.20;99.90;;;;;;5066568;28;19982;-72
2024/01/21 01:25:01;;;;;;;;;;;-3.30;99.90;;;;;;5061695;28;20560;-72
2024/01/21 01:27:29;;;;;;;;;;;-3.20;99.90;;;;;;5061310;28;19975;-71
2024/01/21 01:29:56;;;;;;;;;;;-3.30;99.90;;;;;;5061177;28;19971;-72
2024/01/21 01:32:23;;;;;;;;;;;-3.30;99.90;;;;;;5063056;28;20277;-73
2024/01/21 01:34:52;;;;;;;;;;;-3.30;99.90;;;;;;5062166;28;19999;-72
2024/01/21 01:37:18;;;;;;;;;;;-3.30;99.90;;;;;;5062693;28;19976;-73
2024/01/21 01:39:45;;;;;;;;;;;-3.30;99.90;;;;;;5062665;28;20043;-73
2024/01/21 01:42:11;;;;;;;;;;;-3.40;99.90;;;;;;5063650;28;19979;-74
2024/01/21 01:44:40;;;;;;;;;;;-3.40;99.90;;;;;;5066059;28;20044;-71
2024/01/21 01:47:07;;;;;;;;;;;-3.40;99.90;;;;;;5065100;28;20000;-71
2024/01/21 01:49:35;;;;;;;;;;;-3.40;99.90;;;;;;5061391;28;20512;-72
2024/01/21 01:52:02;;;;;;;;;;;-3.40;99.90;;;;;;5066267;28;19986;-73
2024/01/21 01:54:29;;;;;;;;;;;-3.40;99.90;;;;;;5064040;28;19975;-72
2024/01/21 01:56:56;;;;;;;;;;;-3.40;99.90;;;;;;5064984;28;19971;-71
2024/01/21 01:59:23;;;;;;;;;;;-3.40;99.90;;;;;;5061483;28;19971;-72
2024/01/21 02:01:49;;;;;;;;;;;-3.50;99.90;;;;;;5062979;28;19991;-72
2024/01/21 02:04:16;;;;;;;;;;;-3.50;99.90;;;;;;5064607;28;19983;-72
2024/01/21 02:06:44;;;;;;;;;;;-3.50;99.90;;;;;;5061615;28;19994;-72
2024/01/21 02:09:10;;;;;;;;;;;-3.50;99.90;;;;;;5063395;28;19980;-73
2024/01/21 02:11:37;;;;;;;;;;;-3.50;99.90;;;;;;5063691;28;20057;-73
2024/01/21 02:14:03;;;;;;;;;;;-3.50;99.90;;;;;;5063329;28;20021;-72
2024/01/21 02:16:30;;;;;;;;;;;-3.50;99.90;;;;;;5062272;28;20021;-70
2024/01/21 02:18:56;;;;;;;;;;;-3.60;99.90;;;;;;5063256;28;20368;-69
2024/01/21 02:21:23;;;;;;;;;;;-3.60;99.90;;;;;;5062184;28;20521;-71
2024/01/21 02:23:51;;;;;;;;;;;-3.60;99.90;;;;;;5063396;28;19975;-71
2024/01/21 02:26:17;;;;;;;;;;;-3.50;99.90;;;;;;5066796;28;19999;-70
2024/01/21 02:28:44;;;;;;;;;;;-3.60;99.90;;;;;;5064126;28;19982;-69
2024/01/21 02:31:10;;;;;;;;;;;-3.60;99.90;;;;;;5063553;28;20641;-72
2024/01/21 02:33:37;;;;;;;;;;;-3.60;99.90;;;;;;5061356;28;19972;-69
2024/01/21 02:36:04;;;;;;;;;;;-3.60;99.90;;;;;;5063316;28;19991;-72
2024/01/21 02:38:30;;;;;;;;;;;-3.60;99.90;;;;;;5061585;28;19979;-69
2024/01/21 02:40:58;;;;;;;;;;;-3.60;99.90;;;;;;5066353;28;19979;-70
2024/01/21 02:43:25;;;;;;;;;;;-3.60;99.90;;;;;;5062841;28;20440;-69
2024/01/21 02:45:51;;;;;;;;;;;-3.60;99.90;;;;;;5062123;28;19999;-72
2024/01/21 02:48:18;;;;;;;;;;;-3.60;99.90;;;;;;5063059;28;19978;-70
2024/01/21 02:50:44;;;;;;;;;;;-3.60;99.90;;;;;;5061691;28;20748;-69
2024/01/21 02:53:11;;;;;;;;;;;-3.60;99.90;;;;;;5061329;28;20074;-72
2024/01/21 02:55:37;;;;;;;;;;;-3.60;99.90;;;;;;5062293;28;19991;-71
2024/01/21 02:58:05;;;;;;;;;;;-3.60;99.90;;;;;;5054463;28;19979;-72
2024/01/21 03:00:32;;;;;;;;;;;-3.70;99.90;;;;;;5061887;28;19998;-74
2024/01/21 03:02:59;;;;;;;;;;;-3.60;99.90;;;;;;5063725;28;19982;-71
2024/01/21 03:05:26;;;;;;;;;;;-3.70;99.90;;;;;;5060303;28;20034;-72
2024/01/21 03:07:52;;;;;;;;;;;-3.60;99.90;;;;;;5061794;28;19982;-72
2024/01/21 03:10:19;;;;;;;;;;;-3.60;99.90;;;;;;5064630;28;20766;-71
2024/01/21 03:12:45;;;;;;;;;;;-3.60;99.90;;;;;;5061663;28;20033;-72
2024/01/21 03:15:13;;;;;;;;;;;-3.60;99.90;;;;;;5062834;28;19994;-71
2024/01/21 03:17:39;;;;;;;;;;;-3.60;99.90;;;;;;5061724;28;19979;-72
2024/01/21 03:20:07;;;;;;;;;;;-3.60;99.90;;;;;;5058537;28;19998;-73
2024/01/21 03:22:33;;;;;;;;;;;-3.60;99.90;;;;;;5064184;28;19971;-72
2024/01/21 03:25:00;;;;;;;;;;;-3.60;99.90;;;;;;5063455;28;20006;-72
2024/01/21 03:27:26;;;;;;;;;;;-3.60;99.90;;;;;;5059802;28;19975;-71
2024/01/21 03:29:53;;;;;;;;;;;-3.60;99.90;;;;;;5065021;28;19975;-71
2024/01/21 03:32:21;;;;;;;;;;;-3.60;99.90;;;;;;5062781;28;20452;-71
2024/01/21 03:34:47;;;;;;;;;;;-3.60;99.90;;;;;;5059345;28;20487;-74
2024/01/21 03:37:14;;;;;;;;;;;-3.60;99.90;;;;;;5059845;28;19976;-72
2024/01/21 03:39:40;;;;;;;;;;;-3.60;99.90;;;;;;5063286;28;19971;-72
2024/01/21 03:42:07;;;;;;;;;;;-3.60;99.90;;;;;;5060892;28;19982;-73
2024/01/21 03:44:33;;;;;;;;;;;-3.60;99.90;;;;;;5059009;28;19975;-72
2024/01/21 03:47:00;;;;;;;;;;;-3.60;99.90;;;;;;5062242;28;19998;-72
2024/01/21 03:49:28;;;;;;;;;;;-3.60;99.90;;;;;;5063503;28;20029;-71
2024/01/21 03:51:55;;;;;;;;;;;-3.60;99.90;;;;;;5061095;28;19979;-71
2024/01/21 03:54:22;;;;;;;;;;;-3.60;99.90;;;;;;5067096;28;20089;-71
2024/01/21 03:56:48;;;;;;;;;;;-3.60;99.90;;;;;;5060725;28;19990;-71
2024/01/21 03:59:15;;;;;;;;;;;-3.70;99.90;;;;;;5063585;28;19987;-72
2024/01/21 04:01:44;;;;;;;;;;;-3.70;99.90;;;;;;5058384;28;20034;-71
2024/01/21 04:04:11;;;;;;;;;;;-3.70;99.90;;;;;;5063385;28;19976;-72
2024/01/21 04:06:41;;;;;;;;;;;-3.60;99.90;;;;;;5060777;28;20049;-73
2024/01/21 04:09:07;;;;;;;;;;;-3.70;99.90;;;;;;5063212;28;20033;-71
2024/01/21 04:11:34;;;;;;;;;;;-3.70;99.90;;;;;;5062289;28;19978;-71
2024/01/21 04:14:00;;;;;;;;;;;-3.70;99.90;;;;;;5062742;28;19979;-73
2024/01/21 04:16:27;;;;;;;;;;;-3.70;99.90;;;;;;5060167;28;20375;-73
2024/01/21 04:18:53;;;;;;;;;;;-3.70;99.90;;;;;;5061757;28;20017;-72
2024/01/21 04:21:20;;;;;;;;;;;-3.70;99.90;;;;;;5061036;28;20424;-72
2024/01/21 04:23:48;;;;;;;;;;;-3.70;99.90;;;;;;5060362;28;19971;-72
2024/01/21 04:26:15;;;;;;;;;;;-3.70;99.90;;;;;;5060604;28;20048;-75
2024/01/21 04:28:41;;;;;;;;;;;-3.70;99.90;;;;;;5063086;28;19967;-73
2024/01/21 04:31:08;;;;;;;;;;;-3.70;99.90;;;;;;5063751;28;20004;-71
2024/01/21 04:33:36;;;;;;;;;;;-3.70;99.90;;;;;;5065837;28;19976;-71
2024/01/21 04:36:03;;;;;;;;;;;-3.70;99.90;;;;;;5062543;28;19995;-71
2024/01/21 04:38:30;;;;;;;;;;;-3.70;99.90;;;;;;5063234;28;20117;-71
2024/01/21 04:40:58;;;;;;;;;;;-3.70;99.90;;;;;;5069052;28;20725;-73
2024/01/21 04:43:25;;;;;;;;;;;-3.70;99.90;;;;;;5064407;28;20336;-72
2024/01/21 04:45:51;;;;;;;;;;;-3.70;99.90;;;;;;5064980;28;19991;-71
2024/01/21 04:48:18;;;;;;;;;;;-3.80;99.90;;;;;;5063161;28;19975;-72
2024/01/21 04:50:44;;;;;;;;;;;-3.70;99.90;;;;;;5059792;28;19979;-72
2024/01/21 04:53:12;;;;;;;;;;;-3.70;99.90;;;;;;5063132;28;19976;-71
2024/01/21 04:55:38;;;;;;;;;;;-3.80;99.90;;;;;;5068536;28;20097;-73
2024/01/21 04:58:06;;;;;;;;;;;-3.80;99.90;;;;;;5064469;28;19972;-72
2024/01/21 05:00:33;;;;;;;;;;;-3.80;99.90;;;;;;5065837;28;19990;-72
2024/01/21 05:02:59;;;;;;;;;;;-3.70;99.90;;;;;;5061747;28;19998;-71
2024/01/21 05:05:26;;;;;;;;;;;-3.80;99.90;;;;;;5063632;28;19991;-72
2024/01/21 05:07:52;;;;;;;;;;;-3.70;99.90;;;;;;5063240;28;19982;-71
2024/01/21 05:10:19;;;;;;;;;;;-3.80;99.90;;;;;;5068023;28;20066;-73
2024/01/21 05:12:45;;;;;;;;;;;-3.80;99.90;;;;;;5065186;28;20402;-72
2024/01/21 05:15:13;;;;;;;;;;;-3.70;99.90;;;;;;5066624;28;19994;-72
2024/01/21 05:17:39;;;;;;;;;;;-3.80;99.90;;;;;;5064675;28;19975;-73
2024/01/21 05:20:08;;;;;;;;;;;-3.80;99.90;;;;;;5056308;28;20057;-71
2024/01/21 05:22:35;;;;;;;;;;;-3.80;99.90;;;;;;5063771;28;19978;-71
2024/01/21 05:25:03;;;;;;;;;;;-3.80;99.90;;;;;;5062942;28;20033;-72
2024/01/21 05:27:29;;;;;;;;;;;-3.80;99.90;;;;;;5062126;28;19999;-72
2024/01/21 05:29:56;;;;;;;;;;;-3.80;99.90;;;;;;5059319;28;19986;-72
2024/01/21 05:32:24;;;;;;;;;;;-3.80;99.90;;;;;;5064294;28;19978;-72
2024/01/21 05:34:50;;;;;;;;;;;-3.80;99.90;;;;;;5062750;28;20805;-74
2024/01/21 05:37:17;;;;;;;;;;;-3.80;99.90;;;;;;5063998;28;19976;-72
2024/01/21 05:39:43;;;;;;;;;;;-3.80;99.90;;;;;;5061475;28;19979;-71
2024/01/21 05:42:10;;;;;;;;;;;-3.80;99.90;;;;;;5071245;28;19976;-71
2024/01/21 05:44:37;;;;;;;;;;;-3.80;99.90;;;;;;5072626;28;20654;-73
2024/01/21 05:47:03;;;;;;;;;;;-3.80;99.90;;;;;;5066404;28;19995;-71
2024/01/21 05:49:31;;;;;;;;;;;-3.80;99.90;;;;;;5062132;28;19972;-71
2024/01/21 05:51:58;;;;;;;;;;;-3.80;99.90;;;;;;5061013;28;20456;-71
2024/01/21 05:54:26;;;;;;;;;;;-3.90;99.90;;;;;;5065744;28;19976;-71
2024/01/21 05:56:53;;;;;;;;;;;-3.90;99.90;;;;;;5065455;28;19976;-71
2024/01/21 05:59:20;;;;;;;;;;;-3.90;99.90;;;;;;5065296;28;19971;-71
2024/01/21 06:01:47;;;;;;;;;;;-3.90;99.90;;;;;;5061827;28;19995;-70
2024/01/21 06:04:14;;;;;;;;;;;-3.90;99.90;;;;;;5061384;28;19974;-73
2024/01/21 06:06:42;;;;;;;;;;;-3.90;99.90;;;;;;5062274;28;19991;-71
2024/01/21 06:09:08;;;;;;;;;;;-3.90;99.90;;;;;;5063566;28;19975;-72
2024/01/21 06:11:35;;;;;;;;;;;-3.90;99.90;;;;;;5064066;28;19975;-71
2024/01/21 06:14:01;;;;;;;;;;;-4.00;99.90;;;;;;5059604;28;21036;-71
2024/01/21 06:16:28;;;;;;;;;;;-4.00;99.90;;;;;;5062953;28;19998;-71
2024/01/21 06:18:54;;;;;;;;;;;-4.00;99.90;;;;;;5060028;28;19978;-71
2024/01/21 06:21:21;;;;;;;;;;;-4.00;99.90;;;;;;5061896;28;20387;-71
2024/01/21 06:23:49;;;;;;;;;;;-4.00;99.90;;;;;;5063629;28;20032;-72
2024/01/21 06:26:16;;;;;;;;;;;-4.00;99.90;;;;;;5064327;28;19991;-72
2024/01/21 06:28:42;;;;;;;;;;;-4.00;99.90;;;;;;5064303;28;19978;-71
2024/01/21 06:31:09;;;;;;;;;;;-4.00;99.90;;;;;;5063160;28;20044;-73
2024/01/21 06:33:35;;;;;;;;;;;-4.10;99.90;;;;;;5061827;28;20004;-72
2024/01/21 06:36:02;;;;;;;;;;;-4.10;99.90;;;;;;5059807;28;19995;-71
2024/01/21 06:38:29;;;;;;;;;;;-4.10;99.90;;;;;;5062576;28;19979;-71
2024/01/21 06:40:56;;;;;;;;;;;-4.10;99.90;;;;;;5065864;28;19975;-71
2024/01/21 06:43:23;;;;;;;;;;;-4.10;99.90;;;;;;5062244;28;20437;-70
2024/01/21 06:45:50;;;;;;;;;;;-4.10;99.90;;;;;;5063923;28;19999;-71
2024/01/21 06:48:16;;;;;;;;;;;-4.10;99.90;;;;;;5063638;28;19975;-71
2024/01/21 06:50:48;;;;;;;;;;;-4.10;99.90;;;;;;5061898;28;20372;-71
2024/01/21 06:53:15;;;;;;;;;;;-4.10;99.90;;;;;;5063365;28;19980;-71
2024/01/21 06:55:41;;;;;;;;;;;-4.20;99.90;;;;;;5063505;28;19987;-71
2024/01/21 06:58:09;;;;;;;;;;;-4.20;99.90;;;;;;5062123;28;20786;-71
2024/01/21 07:00:36;;;;;;;;;;;-4.20;99.90;;;;;;5062296;28;19987;-72
2024/01/21 07:03:02;;;;;;;;;;;-4.20;99.90;;;;;;5061609;28;19982;-73
2024/01/21 07:05:29;;;;;;;;;;;-4.20;99.90;;;;;;5060884;28;19987;-72
2024/01/21 07:07:56;;;;;;;;;;;-4.20;99.90;;;;;;5061957;28;20478;-71
2024/01/21 07:10:23;;;;;;;;;;;-4.20;99.90;;;;;;5062137;28;20001;-72
2024/01/21 07:12:50;;;;;;;;;;;-4.20;99.90;;;;;;5062226;28;20338;-72
2024/01/21 07:15:18;;;;;;;;;;;-4.20;99.90;;;;;;5061179;28;19987;-72
2024/01/21 07:17:44;;;;;;;;;;;-4.20;99.90;;;;;;5062716;28;20411;-72
2024/01/21 07:20:12;;;;;;;;;;;-4.20;99.90;;;;;;5059070;28;19972;-71
2024/01/21 07:22:38;;;;;;;;;;;-4.20;99.90;;;;;;5064861;28;20734;-71
2024/01/21 07:25:05;;;;;;;;;;;-4.20;99.90;;;;;;5060589;28;19991;-70
2024/01/21 07:27:34;;;;;;;;;;;-4.20;99.90;;;;;;5063524;28;19994;-72
2024/01/21 07:30:00;;;;;;;;;;;-4.20;99.90;;;;;;5058905;28;19982;-71
2024/01/21 07:32:28;;;;;;;;;;;-4.20;99.90;;;;;;5060278;28;19987;-72
2024/01/21 07:34:55;;;;;;;;;;;-4.20;99.90;;;;;;5061504;28;19987;-71
2024/01/21 07:37:21;;;;;;;;;;;-4.20;99.90;;;;;;5063742;28;19971;-71
2024/01/21 07:39:49;;;;;;;;;;;-4.30;99.90;;;;;;5061398;28;20798;-72
2024/01/21 07:42:15;;;;;;;;;;;-4.20;99.90;;;;;;5062334;28;19979;-72
2024/01/21 07:44:42;;;;;;;;;;;-4.20;99.90;;;;;;5061200;28;19971;-72
2024/01/21 07:47:08;;;;;;;;;;;-4.20;99.90;;;;;;5063457;28;20006;-73
2024/01/21 07:49:37;;;;;;;;;;;-4.20;99.90;;;;;;5062241;28;20733;-71
2024/01/21 07:52:03;;;;;;;;;;;-4.20;99.90;;;;;;5061434;28;20412;-71
2024/01/21 07:54:30;;;;;;;;;;;-4.20;99.90;;;;;;5061338;28;19971;-71
2024/01/21 07:56:56;;;;;;;;;;;-4.20;99.90;;;;;;5062244;28;19990;-70
2024/01/21 07:59:23;;;;;;;;;;;-4.20;99.90;;;;;;5062186;28;20547;-70
2024/01/21 08:01:49;;;;;;;;;;;-4.20;99.90;;;;;;5055035;28;19994;-71
2024/01/21 08:04:16;;;;;;;;;;;-4.20;99.90;;;;;;5059981;28;20041;-71
2024/01/21 08:06:44;;;;;;;;;;;-4.20;99.90;;;;;;5060417;28;20444;-71
2024/01/21 08:09:10;;;;;;;;;;;-4.20;99.90;;;;;;5059725;28;20001;-73
2024/01/21 08:11:37;;;;;;;;;;;-4.20;99.90;;;;;;5061532;28;19983;-71
2024/01/21 08:14:03;;;;;;;;;;;-4.20;99.90;;;;;;5061305;28;19982;-71
2024/01/21 08:16:30;;;;;;;;;;;-4.20;99.90;;;;;;5061981;28;19991;-71
2024/01/21 08:18:56;;;;;;;;;;;-4.20;99.90;;;;;;5058984;28;20455;-72
2024/01/21 08:21:23;;;;;;;;;;;-4.20;99.90;;;;;;5060555;28;19971;-70
2024/01/21 08:23:51;;;;;;;;;;;-4.20;99.90;;;;;;5061574;28;19975;-73
2024/01/21 08:26:17;;;;;;;;;;;-4.20;99.90;;;;;;5057069;28;19990;-71
2024/01/21 08:28:44;;;;;;;;;;;-4.10;99.90;;;;;;5063129;28;19971;-70
2024/01/21 08:31:11;;;;;;;;;;;-4.10;99.90;;;;;;5059461;28;20081;-71
2024/01/21 08:33:37;;;;;;;;;;;-4.10;99.90;;;;;;5063179;28;19976;-70
2024/01/21 08:36:04;;;;;;;;;;;-4.10;99.90;;;;;;5061187;28;20005;-73
2024/01/21 08:38:31;;;;;;;;;;;-4.10;99.90;;;;;;5061523;28;19997;-72
2024/01/21 08:40:58;;;;;;;;;;;-4.10;99.90;;;;;;5061280;28;20452;-72
2024/01/21 08:43:25;;;;;;;;;;;-4.10;99.90;;;;;;5059867;28;19982;-71
2024/01/21 08:45:51;;;;;;;;;;;-4.10;99.90;;;;;;5059789;28;19998;-72
2024/01/21 08:48:18;;;;;;;;;;;-4.10;99.90;;;;;;5059467;28;19998;-71
2024/01/21 08:50:45;;;;;;;;;;;-4.10;99.90;;;;;;5058303;28;19975;-71
2024/01/21 08:53:11;;;;;;;;;;;-4.10;99.90;;;;;;5060414;28;19994;-70
2024/01/21 08:55:38;;;;;;;;;;;-4.10;99.90;;;;;;5062393;28;19988;-71
2024/01/21 08:58:06;;;;;;;;;;;-4.10;99.90;;;;;;5059474;28;19975;-73
2024/01/21 09:00:32;;;;;;;;;;;-4.10;99.90;;;;;;5058029;28;19987;-72
2024/01/21 09:02:59;;;;;;;;;;;-4.00;99.90;;;;;;5061321;28;20403;-71
2024/01/21 09:05:27;;;;;;;;;;;-4.10;99.90;;;;;;5059270;28;20048;-70
2024/01/21 09:07:53;;;;;;;;;;;-4.00;99.90;;;;;;5062055;28;20464;-72
2024/01/21 09:10:20;;;;;;;;;;;-4.00;99.90;;;;;;5060622;28;19975;-71
2024/01/21 09:12:46;;;;;;;;;;;-4.00;99.90;;;;;;5062005;28;19971;-71
2024/01/21 09:15:14;;;;;;;;;;;-4.00;99.90;;;;;;5062884;28;19983;-72
2024/01/21 09:17:41;;;;;;;;;;;-4.00;99.90;;;;;;5064650;28;20016;-70
2024/01/21 09:20:09;;;;;;;;;;;-4.00;99.90;;;;;;5063562;28;20058;-71
2024/01/21 09:22:36;;;;;;;;;;;-4.00;99.90;;;;;;5064401;28;19971;-71
2024/01/21 09:25:02;;;;;;;;;;;-4.00;99.90;;;;;;5063674;28;20073;-72
2024/01/21 09:27:29;;;;;;;;;;;-4.00;99.90;;;;;;5058858;28;19988;-71
2024/01/21 09:29:55;;;;;;;;;;;-3.90;99.90;;;;;;5061439;28;19979;-71
2024/01/21 09:32:23;;;;;;;;;;;-3.90;99.90;;;;;;5062292;28;19983;-71
2024/01/21 09:34:50;;;;;;;;;;;-3.90;99.90;;;;;;5063691;28;19991;-71
2024/01/21 09:37:16;;;;;;;;;;;-3.90;99.90;;;;;;5063910;28;19979;-71
2024/01/21 09:39:43;;;;;;;;;;;-3.90;99.90;;;;;;5064445;28;20519;-71
2024/01/21 09:42:09;;;;;;;;;;;-3.90;99.90;;;;;;5066899;28;19983;-71
2024/01/21 09:44:36;;;;;;;;;;;-3.80;99.90;;;;;;5065215;28;19978;-70
2024/01/21 09:47:03;;;;;;;;;;;-3.80;99.90;;;;;;5063578;28;20006;-71
2024/01/21 09:49:32;;;;;;;;;;;-3.80;99.90;;;;;;5067778;28;20344;-70
2024/01/21 09:51:59;;;;;;;;;;;-3.80;99.90;;;;;;5061933;28;19975;-70
2024/01/21 09:54:25;;;;;;;;;;;-3.80;99.90;;;;;;5063314;28;19975;-70
2024/01/21 09:56:52;;;;;;;;;;;-3.80;99.90;;;;;;5061071;28;19994;-72
2024/01/21 09:59:18;;;;;;;;;;;-3.80;99.90;;;;;;5061669;28;20484;-70
2024/01/21 10:01:45;;;;;;;;;;;-3.70;99.90;;;;;;5060903;28;19991;-73
2024/01/21 10:04:14;;;;;;;;;;;-3.70;99.90;;;;;;5063666;28;20032;-71
2024/01/21 10:06:41;;;;;;;;;;;-3.70;99.90;;;;;;5061361;28;20458;-73
2024/01/21 10:09:11;;;;;;;;;;;-3.70;99.90;;;;;;5062377;28;20739;-72
2024/01/21 10:11:38;;;;;;;;;;;-3.70;99.90;;;;;;5060872;28;20011;-70
2024/01/21 10:14:04;;;;;;;;;;;-3.70;99.90;;;;;;5058622;28;19997;-71
2024/01/21 10:16:31;;;;;;;;;;;-3.60;99.90;;;;;;5058888;28;20068;-71
2024/01/21 10:18:58;;;;;;;;;;;-3.60;99.90;;;;;;5062526;28;19975;-71
2024/01/21 10:21:25;;;;;;;;;;;-3.60;99.90;;;;;;5057497;28;19975;-69
2024/01/21 10:23:53;;;;;;;;;;;-3.60;99.90;;;;;;5061301;28;20021;-70
2024/01/21 10:26:20;;;;;;;;;;;-3.60;99.90;;;;;;5062697;28;19991;-72
2024/01/21 10:28:46;;;;;;;;;;;-3.60;99.90;;;;;;5063001;28;19987;-71
2024/01/21 10:31:13;;;;;;;;;;;-3.50;99.90;;;;;;5059653;28;19992;-71
2024/01/21 10:33:43;;;;;;;;;;;-3.50;99.90;;;;;;5060434;28;20002;-72
2024/01/21 10:36:11;;;;;;;;;;;-3.50;99.90;;;;;;5060415;28;20056;-71
2024/01/21 10:38:49;;;;;;;;;;;-3.50;99.90;;;;;;5062810;28;19975;-71
2024/01/21 10:41:21;;;;;;;;;;;-3.40;99.90;;;;;;5061181;28;19975;-70
2024/01/21 10:43:48;;;;;;;;;;;-3.40;99.90;;;;;;5063591;28;19978;-73
2024/01/21 10:46:15;;;;;;;;;;;-3.40;99.90;;;;;;5064042;28;20037;-70
2024/01/21 10:48:42;;;;;;;;;;;-3.40;99.90;;;;;;5065511;28;20337;-72
2024/01/21 10:51:09;;;;;;;;;;;-3.30;99.90;;;;;;5061439;28;19979;-70
2024/01/21 10:53:36;;;;;;;;;;;-3.30;99.90;;;;;;5063194;28;20353;-70
2024/01/21 10:56:04;;;;;;;;;;;-3.30;99.90;;;;;;5064931;28;19998;-70
2024/01/21 10:58:32;;;;;;;;;;;-3.30;99.90;;;;;;5062155;28;19971;-71
2024/01/21 11:01:00;;;;;;;;;;;-3.30;99.90;;;;;;5061375;28;20472;-69
2024/01/21 11:03:31;;;;;;;;;;;-3.30;99.90;;;;;;5061521;28;19971;-70
2024/01/21 11:05:59;;;;;;;;;;;-3.20;99.90;;;;;;5059709;28;20768;-70
2024/01/21 11:08:26;;;;;;;;;;;-3.20;99.90;;;;;;5060853;28;20100;-71
2024/01/21 11:10:58;;;;;;;;;;;-3.20;99.90;;;;;;5060101;28;19979;-70
2024/01/21 11:13:43;;;;;;;;;;;-3.20;99.90;;;;;;5057849;28;20028;-71
2024/01/21 11:16:11;;;;;;;;;;;-3.10;99.90;;;;;;5057056;28;20085;-70
2024/01/21 11:18:37;;;;;;;;;;;-3.10;99.90;;;;;;5060427;28;20344;-70
2024/01/21 11:21:04;;;;;;;;;;;-3.10;99.90;;;;;;5059992;28;19982;-71
2024/01/21 11:23:30;;;;;;;;;;;-3.10;99.90;;;;;;5061414;28;19976;-69
2024/01/21 11:25:57;;;;;;;;;;;-3.00;99.90;;;;;;5061480;28;19995;-70
2024/01/21 11:28:25;;;;;;;;;;;-3.00;99.90;;;;;;5057959;28;20026;-71
2024/01/21 11:30:59;;;;;;;;;;;-2.90;99.90;;;;;;5060859;28;20468;-70
2024/01/21 11:33:26;;;;;;;;;;;-2.90;99.90;;;;;;5063356;28;19967;-72
2024/01/21 11:35:53;;;;;;;;;;;-2.90;99.90;;;;;;5059645;28;19991;-73
2024/01/21 11:38:19;;;;;;;;;;;-2.80;99.90;;;;;;5058809;28;20495;-71
2024/01/21 11:40:46;;;;;;;;;;;-2.80;99.90;;;;;;5061924;28;19972;-71
2024/01/21 11:43:12;;;;;;;;;;;-2.80;99.90;;;;;;5061792;28;19983;-71
2024/01/21 11:45:39;;;;;;;;;;;-2.70;99.90;;;;;;5062656;28;20041;-71
2024/01/21 11:48:11;;;;;;;;;;;-2.60;99.90;;;;;;5059513;28;19992;-70
2024/01/21 11:50:38;;;;;;;;;;;-2.60;99.90;;;;;;5061060;28;19975;-70
2024/01/21 11:53:04;;;;;;;;;;;-2.50;99.90;;;;;;5058748;28;19987;-71
2024/01/21 11:55:32;;;;;;;;;;;-2.50;99.90;;;;;;5062049;28;21382;-70
2024/01/21 11:57:59;;;;;;;;;;;-2.40;99.90;;;;;;5058140;28;20078;-70
2024/01/21 12:00:26;;;;;;;;;;;-2.50;99.90;;;;;;5056682;28;20711;-71
2024/01/21 12:02:53;;;;;;;;;;;-2.40;99.90;;;;;;5059402;28;20404;-72
2024/01/21 12:05:21;;;;;;;;;;;-2.30;99.90;;;;;;5059833;28;19995;-72
2024/01/21 12:07:47;;;;;;;;;;;-2.30;99.90;;;;;;5060121;28;19999;-72
2024/01/21 12:10:14;;;;;;;;;;;-2.30;99.90;;;;;;5063585;28;20399;-72
2024/01/21 12:12:41;;;;;;;;;;;-2.30;99.90;;;;;;5061501;28;19980;-71
2024/01/21 12:15:08;;;;;;;;;;;-2.20;99.90;;;;;;5057731;28;20041;-72
2024/01/21 12:17:36;;;;;;;;;;;-2.20;99.90;;;;;;5057366;28;19976;-71
2024/01/21 12:20:04;;;;;;;;;;;-2.10;99.90;;;;;;5061433;28;20037;-70
2024/01/21 12:22:39;;;;;;;;;;;-2.10;99.90;;;;;;5061099;28;20491;-70
2024/01/21 12:25:08;;;;;;;;;;;-2.00;99.90;;;;;;5060438;28;20494;-71
2024/01/21 12:27:36;;;;;;;;;;;-1.90;99.90;;;;;;5059765;28;19976;-70
2024/01/21 12:30:03;;;;;;;;;;;-1.90;99.90;;;;;;5058601;28;19992;-72
2024/01/21 12:32:29;;;;;;;;;;;-1.70;99.90;;;;;;5057519;28;19996;-72
2024/01/21 12:34:56;;;;;;;;;;;-1.60;99.90;;;;;;5056483;28;20076;-72
2024/01/21 12:37:23;;;;;;;;;;;-1.50;99.90;;;;;;5059231;28;19988;-70
2024/01/21 12:39:51;;;;;;;;;;;-1.40;99.90;;;;;;5061191;28;19975;-71
2024/01/21 12:42:18;;;;;;;;;;;-1.30;99.90;;;;;;5058050;28;19975;-71
2024/01/21 12:44:44;;;;;;;;;;;-1.20;99.90;;;;;;5060399;28;20070;-70
2024/01/21 12:47:11;;;;;;;;;;;-1.20;99.90;;;;;;5057264;28;19988;-70
2024/01/21 12:49:37;;;;;;;;;;;-1.10;99.90;;;;;;5063960;28;20076;-70
2024/01/21 12:52:04;;;;;;;;;;;-1.00;99.90;;;;;;5063419;28;20473;-70
2024/01/21 12:54:30;;;;;;;;;;;-1.00;99.90;;;;;;5065491;28;19975;-69
2024/01/21 12:57:01;;;;;;;;;;;-1.00;99.90;;;;;;5065694;28;20375;-70
2024/01/21 12:59:28;;;;;;;;;;;-0.90;99.90;;;;;;5063672;28;20505;-71
2024/01/21 13:01:54;;;;;;;;;;;-0.90;99.90;;;;;;5064959;28;20003;-70
2024/01/21 13:04:21;;;;;;;;;;;-0.90;99.90;;;;;;5062074;28;19983;-70
2024/01/21 13:06:48;;;;;;;;;;;-0.80;99.90;;;;;;5062970;28;20090;-70
2024/01/21 13:09:14;;;;;;;;;;;-0.80;99.90;;;;;;5061024;28;19999;-70
2024/01/21 13:11:41;;;;;;;;;;;-0.80;99.90;;;;;;5058495;28;20028;-70
2024/01/21 13:14:09;;;;;;;;;;;-0.70;99.90;;;;;;5063851;28;19979;-70
2024/01/21 13:16:35;;;;;;;;;;;-0.70;99.90;;;;;;5063142;28;20461;-70
2024/01/21 13:19:02;;;;;;;;;;;-0.70;99.90;;;;;;5064062;28;19980;-69
2024/01/21 13:21:28;;;;;;;;;;;-0.50;99.90;;;;;;5064882;28;19980;-68
2024/01/21 13:23:55;;;;;;;;;;;-0.40;99.90;;;;;;5066069;28;19928;-68
2024/01/21 13:26:21;;;;;;;;;;;-0.40;99.90;;;;;;5064722;28;20335;-68
2024/01/21 13:30:43;;;;;;;;;;;-0.30;99.90;;;;;;5063744;28;19928;-69
2024/01/21 13:31:48;;;;;;;;;;;-0.30;99.90;;;;;;5067722;28;19925;-68
2024/01/21 13:34:15;;;;;;;;;;;-0.30;99.90;;;;;;5063263;28;20404;-68
2024/01/21 13:36:41;;;;;;;;;;;-0.30;99.90;;;;;;5059308;28;19936;-69
2024/01/21 13:39:08;;;;;;;;;;;-0.30;99.90;;;;;;5065774;28;19932;-69
2024/01/21 13:41:34;;;;;;;;;;;-0.40;99.90;;;;;;5061713;28;19936;-69
2024/01/21 13:44:01;;;;;;;;;;;-0.30;99.90;;;;;;5064395;28;19932;-69
2024/01/21 13:46:28;;;;;;;;;;;-0.30;99.90;;;;;;5060805;28;20473;-69
2024/01/21 13:48:56;;;;;;;;;;;-0.30;99.90;;;;;;5065823;28;19932;-69
2024/01/21 13:51:23;;;;;;;;;;;-0.20;99.90;;;;;;5060919;28;19939;-69
2024/01/21 13:53:49;;;;;;;;;;;-0.30;99.90;;;;;;5063709;28;20043;-69
2024/01/21 13:56:16;;;;;;;;;;;-0.30;99.90;;;;;;5061512;28;19935;-70
2024/01/21 13:58:42;;;;;;;;;;;-0.20;99.90;;;;;;5062088;28;20524;-69
2024/01/21 14:01:09;;;;;;;;;;;-0.20;99.90;;;;;;5061927;28;19937;-69
2024/01/21 14:03:35;;;;;;;;;;;-0.20;99.90;;;;;;5062142;28;19928;-68
2024/01/21 14:06:03;;;;;;;;;;;-0.20;99.90;;;;;;5058758;28;20466;-70
2024/01/21 14:08:30;;;;;;;;;;;-0.20;99.90;;;;;;5062644;28;19928;-68
2024/01/21 14:10:56;;;;;;;;;;;-0.20;99.90;;;;;;5061022;28;19932;-69
2024/01/21 14:13:23;;;;;;;;;;;-0.20;99.90;;;;;;5061674;28;19940;-69
2024/01/21 14:15:50;;;;;;;;;;;-0.20;99.90;;;;;;5065380;28;19929;-69